| time (UTC) | temp F | wind direction | speed knots | gust knots | rain 1hr in | rain 24hr in | rain mn in | humidity % | barometer mb |
| 20260510120026 | 54 | 0.0 | 0.0 | 0.00 | 0.00 | 0.00 | 1 | 1011.7 | |
| 20260510115026 | 53 | 0.0 | 0.0 | 0.00 | 0.00 | 0.00 | 1 | 1011.5 | |
| 20260510114024 | 52 | 0.0 | 0.0 | 0.00 | 0.00 | 0.00 | 4 | 1011.4 | |
| 20260510113026 | 51 | 0.0 | 0.0 | 0.00 | 0.00 | 0.00 | 7 | 1011.4 | |
| 20260510112026 | 51 | 0.0 | 0.0 | 0.00 | 0.00 | 0.00 | 8 | 1011.4 | |
| 20260510111525 | 0 | 0.0 | 0.0 | 0.00 | 0.00 | 0.00 | |||
| 20260510110525 | 0 | 0.0 | 0.0 | 0.00 | 0.00 | 0.00 | |||
| 20260510110015 | 0 | 0.0 | 0.0 | 0.00 | 0.00 | 0.00 | |||
| 20260510105614 | 0 | 0.0 | 0.0 | 0.00 | 0.00 | 0.00 | |||
| 20260510105026 | 0 | 0.0 | 0.0 | 0.00 | 0.00 | 0.00 | |||
| 20260510104025 | 0 | 0.0 | 0.0 | 0.00 | 0.00 | 0.00 | |||
| 20260510103539 | 0 | 0.0 | 0.0 | 0.00 | 0.00 | 0.00 | |||
| 20260510103019 | 0 | 0.0 | 0.0 | 0.00 | 0.00 | 0.00 | |||
| 20260510102526 | 0 | 0.0 | 0.0 | 0.00 | 0.00 | 0.00 | |||
| 20260510101525 | 0 | 0.0 | 0.0 | 0.00 | 0.00 | 0.00 | |||
| 20260510101040 | 0 | 0.0 | 0.0 | 0.00 | 0.00 | 0.00 | |||
| 20260510100519 | 0 | 0.0 | 0.0 | 0.00 | 0.00 | 0.00 | |||
| 20260510100025 | 0 | 0.0 | 0.0 | 0.00 | 0.00 | 0.00 | |||
| 20260510095025 | 0 | 0.0 | 0.0 | 0.00 | 0.00 | 0.00 | |||
| 20260510094545 | 0 | 0.0 | 0.0 | 0.00 | 0.00 | 0.00 | |||
| 20260510094041 | 0 | 0.0 | 0.0 | 0.00 | 0.00 | 0.00 | |||
| 20260510093525 | 0 | 0.0 | 0.0 | 0.00 | 0.00 | 0.00 | |||
| 20260510092556 | 0 | 0.0 | 0.0 | 0.00 | 0.00 | 0.00 | |||
| 20260510092045 | 0 | 0.0 | 0.0 | 0.00 | 0.00 | 0.00 | |||
| 20260510091523 | 0 | 0.0 | 0.0 | 0.00 | 0.00 | 0.00 | |||
| 20260510091025 | 0 | 0.0 | 0.0 | 0.00 | 0.00 | 0.00 | |||
| 20260510090025 | 0 | 0.0 | 0.0 | 0.00 | 0.00 | 0.00 | |||
| 20260510085616 | 0 | 0.0 | 0.0 | 0.00 | 0.00 | 0.00 | 31 | ||
| 20260510085033 | 51 | 0.0 | 0.0 | 0.00 | 0.00 | 0.00 | 31 | 1009.9 | |
| 20260510084527 | 52 | 0.0 | 0.0 | 0.00 | 0.00 | 0.00 | 30 | 1009.8 | |
| 20260510083526 | 51 | 0.0 | 0.0 | 0.00 | 0.00 | 0.00 | 35 | 1009.9 | |
| 20260510082526 | 52 | 0.0 | 0.0 | 0.00 | 0.00 | 0.00 | 38 | 1009.8 | |
| 20260510081526 | 52 | 0.0 | 0.0 | 0.00 | 0.00 | 0.00 | 37 | 1009.7 | |
| 20260510080527 | 52 | 0.0 | 0.0 | 0.00 | 0.00 | 0.00 | 45 | 1009.5 | |
| 20260510075526 | 52 | 0.0 | 0.0 | 0.00 | 0.00 | 0.00 | 42 | 1009.4 | |
| 20260510074525 | 52 | 0.0 | 0.0 | 0.00 | 0.00 | 0.00 | 49 | 1009.4 | |
| 20260510073527 | 53 | 0.0 | 0.0 | 0.00 | 0.00 | 0.00 | 49 | 1009.1 | |
| 20260510072526 | 53 | 0.0 | 0.0 | 0.00 | 0.00 | 0.00 | 49 | 1009.1 | |
| 20260510071525 | 53 | 0.0 | 0.0 | 0.00 | 0.00 | 0.00 | 54 | 1009.1 | |
| 20260510070526 | 53 | 0.0 | 0.0 | 0.00 | 0.00 | 0.00 | 63 | 1009.2 | |
| 20260510065526 | 53 | 0.0 | 0.0 | 0.00 | 0.00 | 0.00 | 65 | 1009.1 | |
| 20260510064526 | 53 | 0.0 | 0.0 | 0.00 | 0.00 | 0.00 | 69 | 1009.0 | |
| 20260510063526 | 53 | 0.0 | 0.0 | 0.00 | 0.00 | 0.00 | 73 | 1009.0 | |
| 20260510062525 | 54 | 0.0 | 0.0 | 0.00 | 0.00 | 0.00 | 73 | 1009.1 | |
| 20260510061525 | 54 | 0.0 | 0.0 | 0.00 | 0.00 | 0.00 | 78 | 1009.0 | |
| 20260510060525 | 54 | 0.0 | 0.0 | 0.00 | 0.00 | 0.00 | 78 | 1008.9 | |
| 20260510055526 | 54 | 0.0 | 0.0 | 0.00 | 0.00 | 0.00 | 78 | 1008.9 | |
| 20260510054526 | 55 | 0.0 | 0.0 | 0.00 | 0.00 | 0.00 | 83 | 1009.0 | |
| 20260510053526 | 55 | 0.0 | 0.0 | 0.00 | 0.00 | 0.00 | 84 | 1009.0 | |
| 20260510052606 | 55 | 0.0 | 0.0 | 0.00 | 0.00 | 0.00 | 84 | 1009.0 | |
| 20260510051526 | 55 | 0.0 | 0.0 | 0.00 | 0.00 | 0.00 | 85 | 1009.0 | |
| 20260510050526 | 56 | 0.0 | 0.0 | 0.00 | 0.00 | 0.00 | 86 | 1008.9 | |
| 20260510045526 | 56 | 0.0 | 0.0 | 0.00 | 0.00 | 0.00 | 86 | 1008.9 | |
| 20260510044626 | 56 | 0.0 | 0.0 | 0.00 | 0.00 | 0.00 | 86 | 1009.0 | |
| 20260510043546 | 56 | 0.0 | 0.0 | 0.00 | 0.00 | 0.00 | 86 | 1008.8 | |
| 20260510042526 | 57 | 0.0 | 0.0 | 0.00 | 0.00 | 0.00 | 86 | 1008.8 | |
| 20260510041525 | 57 | 0.0 | 0.0 | 0.00 | 0.00 | 0.00 | 86 | 1008.9 | |
| 20260510040535 | 57 | 0.0 | 0.0 | 0.00 | 0.00 | 0.00 | 85 | 1008.8 | |
| 20260510035526 | 57 | 0.0 | 0.0 | 0.00 | 0.00 | 0.00 | 85 | 1008.7 | |
| 20260510034526 | 57 | 0.0 | 0.0 | 0.00 | 0.00 | 0.00 | 85 | 1008.7 | |
| 20260510033606 | 58 | 0.0 | 0.0 | 0.00 | 0.00 | 0.00 | 84 | 1008.6 | |
| 20260510032546 | 58 | 0.0 | 0.0 | 0.00 | 0.00 | 0.00 | 84 | 1008.6 | |
| 20260510031526 | 58 | 0.0 | 0.0 | 0.00 | 0.00 | 0.00 | 84 | 1008.5 | |
| 20260510030526 | 58 | 0.0 | 0.0 | 0.00 | 0.00 | 0.00 | 83 | 1008.5 | |
| 20260510025526 | 58 | 0.0 | 0.0 | 0.00 | 0.00 | 0.00 | 83 | 1008.4 | |
| 20260510024546 | 58 | 0.0 | 0.0 | 0.00 | 0.00 | 0.00 | 83 | 1008.2 | |
| 20260510023525 | 59 | 0.0 | 0.0 | 0.00 | 0.00 | 0.00 | 82 | 1008.1 | |
| 20260510022525 | 59 | 0.0 | 0.0 | 0.00 | 0.00 | 0.00 | 82 | 1008.1 | |
| 20260510021525 | 59 | 0.0 | 0.0 | 0.00 | 0.00 | 0.00 | 81 | 1008.0 | |
| 20260510020526 | 60 | 0.0 | 0.0 | 0.00 | 0.00 | 0.00 | 80 | 1007.9 | |
| 20260510015526 | 60 | 0.0 | 0.0 | 0.00 | 0.00 | 0.00 | 79 | 1007.9 | |
| 20260510014546 | 61 | 0.0 | 0.0 | 0.00 | 0.00 | 0.00 | 78 | 1007.7 | |
| 20260510013546 | 61 | 0.0 | 0.0 | 0.00 | 0.00 | 0.00 | 78 | 1007.5 | |
| 20260510012525 | 62 | 0.0 | 0.0 | 0.00 | 0.00 | 0.00 | 76 | 1007.4 | |
| 20260510011526 | 62 | 0.0 | 0.0 | 0.00 | 0.00 | 0.00 | 75 | 1007.3 | |
| 20260510010526 | 63 | 0.0 | 0.0 | 0.00 | 0.00 | 0.00 | 74 | 1007.3 | |
| 20260510005526 | 64 | 0.0 | 0.0 | 0.00 | 0.00 | 0.00 | 72 | 1007.2 | |
| 20260510004606 | 65 | 0.0 | 0.0 | 0.00 | 0.00 | 0.00 | 70 | 1006.9 | |
| 20260510003551 | 66 | 0.0 | 0.0 | 0.00 | 0.00 | 0.00 | 68 | 1006.9 | |
| 20260510002525 | 67 | 0.0 | 0.0 | 0.00 | 0.00 | 0.00 | 65 | 1006.7 | |
| 20260510001525 | 68 | 0.0 | 0.0 | 0.00 | 0.00 | 0.00 | 63 | 1006.7 | |
| 20260510000525 | 69 | 0.0 | 0.0 | 0.00 | 0.00 | 0.00 | 62 | 1006.7 | |
| 20260509235525 | 70 | 0.0 | 0.0 | 0.00 | 0.00 | 0.00 | 61 | 1006.5 | |
| 20260509234525 | 71 | 0.0 | 0.0 | 0.00 | 0.00 | 0.00 | 58 | 1006.4 | |
| 20260509233526 | 72 | 0.0 | 0.9 | 0.00 | 0.00 | 0.00 | 55 | 1006.4 | |
| 20260509232525 | 73 | 0.0 | 0.9 | 0.00 | 0.00 | 0.00 | 54 | 1006.4 | |
| 20260509231525 | 74 | 0.0 | 0.9 | 0.00 | 0.00 | 0.00 | 53 | 1006.4 | |
| 20260509230525 | 74 | 0.0 | 0.9 | 0.00 | 0.00 | 0.00 | 51 | 1006.4 | |
| 20260509225525 | 74 | 0.0 | 0.9 | 0.00 | 0.00 | 0.00 | 52 | 1006.4 | |
| 20260509224525 | 74 | 0.0 | 2.6 | 0.00 | 0.00 | 0.00 | 51 | 1006.2 | |
| 20260509223545 | 75 | 0.0 | 2.6 | 0.00 | 0.00 | 0.00 | 51 | 1006.3 | |
| 20260509222525 | 74 | 0.0 | 2.6 | 0.00 | 0.00 | 0.00 | 50 | 1006.4 | |
| 20260509221525 | 74 | 0.0 | 0.9 | 0.00 | 0.00 | 0.00 | 52 | 1006.4 | |
| 20260509220531 | 74 | 0.0 | 0.9 | 0.00 | 0.00 | 0.00 | 51 | 1006.4 | |
| 20260509215525 | 74 | 0.0 | 0.9 | 0.00 | 0.00 | 0.00 | 51 | 1006.4 | |
| 20260509214525 | 75 | 0.0 | 2.6 | 0.00 | 0.00 | 0.00 | 51 | 1006.5 | |
| 20260509213525 | 75 | 0.0 | 0.9 | 0.00 | 0.00 | 0.00 | 51 | 1006.5 | |
| 20260509212546 | 75 | 0.0 | 2.6 | 0.00 | 0.00 | 0.00 | 50 | 1006.3 | |
| 20260509211525 | 75 | 0 | 0.9 | 4.3 | 0.00 | 0.00 | 0.00 | 49 | 1006.3 |
| 20260509210525 | 76 | 0 | 0.9 | 4.3 | 0.00 | 0.00 | 0.00 | 50 | 1006.1 |
| 20260509205525 | 76 | 0 | 0.9 | 4.3 | 0.00 | 0.00 | 0.00 | 51 | 1006.2 |
| 20260509204525 | 76 | 0 | 0.9 | 4.3 | 0.00 | 0.00 | 0.00 | 50 | 1006.2 |
| 20260509203525 | 77 | 0 | 0.9 | 3.5 | 0.00 | 0.00 | 0.00 | 48 | 1006.1 |
| 20260509202545 | 77 | 0.0 | 1.7 | 0.00 | 0.00 | 0.00 | 50 | 1006.1 | |
| 20260509201526 | 77 | 0.0 | 0.9 | 0.00 | 0.00 | 0.00 | 51 | 1006.3 | |
| 20260509200526 | 78 | 0.0 | 2.6 | 0.00 | 0.00 | 0.00 | 51 | 1006.6 | |
| 20260509195525 | 77 | 0.0 | 1.7 | 0.00 | 0.00 | 0.00 | 50 | 1006.6 | |
| 20260509194605 | 77 | 0.0 | 1.7 | 0.00 | 0.00 | 0.00 | 52 | 1006.7 | |
| 20260509193525 | 76 | 0.0 | 2.6 | 0.00 | 0.00 | 0.00 | 54 | 1006.9 | |
| 20260509192525 | 74 | 0.0 | 2.6 | 0.00 | 0.00 | 0.00 | 57 | 1007.2 | |
| 20260509191525 | 73 | 0.0 | 0.9 | 0.00 | 0.00 | 0.00 | 59 | 1007.4 | |
| 20260509190605 | 74 | 0.0 | 0.9 | 0.00 | 0.00 | 0.00 | 56 | 1007.5 | |
| 20260509185525 | 75 | 0.0 | 0.9 | 0.00 | 0.00 | 0.00 | 57 | 1007.6 | |
| 20260509184545 | 74 | 0.0 | 1.7 | 0.00 | 0.00 | 0.00 | 58 | 1007.7 | |
| 20260509183525 | 73 | 0.0 | 0.9 | 0.00 | 0.00 | 0.00 | 58 | 1007.9 | |
| 20260509182525 | 73 | 0.0 | 0.9 | 0.00 | 0.00 | 0.00 | 58 | 1007.9 | |
| 20260509181605 | 74 | 0.0 | 1.7 | 0.00 | 0.00 | 0.00 | 56 | 1008.1 | |
| 20260509180525 | 73 | 0.0 | 1.7 | 0.00 | 0.00 | 0.00 | 58 | 1008.1 | |
| 20260509175545 | 73 | 0.0 | 1.7 | 0.00 | 0.00 | 0.00 | 58 | 1008.1 | |
| 20260509174524 | 73 | 0.0 | 3.5 | 0.00 | 0.00 | 0.00 | 58 | 1008.2 | |
| 20260509173545 | 74 | 0.0 | 1.7 | 0.00 | 0.00 | 0.00 | 54 | 1008.3 | |
| 20260509172525 | 74 | 0.0 | 1.7 | 0.00 | 0.00 | 0.00 | 57 | 1008.4 | |
| 20260509171545 | 72 | 0.0 | 4.3 | 0.00 | 0.00 | 0.00 | 58 | 1008.6 | |
| 20260509170525 | 70 | 0.0 | 3.5 | 0.00 | 0.00 | 0.00 | 61 | 1008.7 | |
| 20260509165525 | 70 | 0.0 | 0.9 | 0.00 | 0.00 | 0.00 | 61 | 1008.7 | |
| 20260509164525 | 70 | 0.0 | 1.7 | 0.00 | 0.00 | 0.00 | 59 | 1008.7 | |
| 20260509163525 | 70 | 0 | 0.9 | 3.5 | 0.00 | 0.00 | 0.00 | 58 | 1008.8 |
| 20260509162524 | 70 | 0.0 | 3.5 | 0.00 | 0.00 | 0.00 | 59 | 1008.8 | |
| 20260509161525 | 70 | 0 | 0.9 | 9.6 | 0.00 | 0.00 | 0.00 | 58 | 1009.0 |
| 20260509160525 | 71 | 0 | 0.9 | 4.3 | 0.00 | 0.00 | 0.00 | 56 | 1008.9 |
| 20260509155525 | 72 | 23 | 0.9 | 7.8 | 0.00 | 0.00 | 0.00 | 55 | 1009.1 |
| 20260509154524 | 72 | 23 | 0.9 | 7.8 | 0.00 | 0.00 | 0.00 | 56 | 1009.1 |
| 20260509153524 | 73 | 0 | 0.9 | 5.2 | 0.00 | 0.00 | 0.00 | 54 | 1009.3 |
| 20260509152524 | 72 | 90 | 0.9 | 6.1 | 0.00 | 0.00 | 0.00 | 55 | 1009.5 |
| 20260509151524 | 71 | 90 | 0.9 | 4.3 | 0.00 | 0.00 | 0.00 | 56 | 1009.3 |
| 20260509150524 | 71 | 68 | 1.7 | 6.1 | 0.00 | 0.00 | 0.00 | 57 | 1009.2 |
| 20260509145524 | 70 | 68 | 0.9 | 4.3 | 0.00 | 0.00 | 0.00 | 61 | 1009.4 |
| 20260509144525 | 69 | 0.0 | 2.6 | 0.00 | 0.00 | 0.00 | 60 | 1009.7 | |
| 20260509143525 | 68 | 0.0 | 1.7 | 0.00 | 0.00 | 0.00 | 61 | 1009.8 | |
| 20260509142524 | 67 | 68 | 0.9 | 3.5 | 0.00 | 0.00 | 0.00 | 61 | 1009.9 |
| 20260509141525 | 66 | 0.0 | 2.6 | 0.00 | 0.00 | 0.00 | 63 | 1009.9 | |
| 20260509140524 | 65 | 0.0 | 3.5 | 0.00 | 0.00 | 0.00 | 65 | 1010.0 | |
| 20260509135525 | 65 | 0.0 | 3.5 | 0.00 | 0.00 | 0.00 | 65 | 1010.1 | |
| 20260509134525 | 64 | 68 | 0.9 | 3.5 | 0.00 | 0.00 | 0.00 | 66 | 1010.3 |
| 20260509133524 | 63 | 0.0 | 3.5 | 0.00 | 0.00 | 0.00 | 69 | 1010.4 | |
| 20260509132525 | 62 | 68 | 0.9 | 4.3 | 0.00 | 0.00 | 0.00 | 71 | 1010.4 |
| 20260509131544 | 61 | 68 | 0.9 | 5.2 | 0.00 | 0.00 | 0.00 | 73 | 1010.4 |
| 20260509130527 | 60 | 68 | 0.9 | 2.6 | 0.00 | 0.00 | 0.00 | 74 | 1010.5 |
| 20260509125526 | 59 | 0.0 | 0.9 | 0.00 | 0.00 | 0.00 | 76 | 1010.5 | |
| 20260509124526 | 58 | 0.0 | 1.7 | 0.00 | 0.00 | 0.00 | 77 | 1010.6 | |
| 20260509123526 | 57 | 68 | 0.9 | 4.3 | 0.00 | 0.00 | 0.00 | 77 | 1010.6 |
| 20260509122531 | 57 | 68 | 0.9 | 4.3 | 0.00 | 0.00 | 0.00 | 77 | 1010.5 |
| 20260509121527 | 56 | 68 | 0.9 | 4.3 | 0.00 | 0.00 | 0.00 | 78 | 1010.5 |
| 20260509120526 | 56 | 68 | 0.9 | 4.3 | 0.00 | 0.00 | 0.00 | 79 | 1010.5 |